Oak Park, Michigan
Current Conditions -  °F | °C
As of 1:35 AM on Sunday 26 Oct 2014 (Local Time) from KVLL Reporting Station
Clear Clear  
Wind Chill: 54°   Ceiling: Unl
Heat Index: 54°   Visibility: 10mi
Dew Point: 29°   Wind: 10mph
Humidity: 39%   Direction: 300°WNW
Pressure: 29.83"   Gusts: 17mph
Location:  42.47°N, 83.18°W
Report Text: KVLL 260535Z AUTO 30009G15KT 10SM CLR 12/M02 A2983 RMK AO2 T01221016
Loading
Personal Weather Stations






























Interactive Weather Map
Tropical Storm Tracking
New forecast layout! Learn more

10-Day Weather Forecast

Advertisements
Track Severe Weather on mobile